createdAt,value
2023-01-01T00:00:22.969Z,14.97
2023-01-01T00:04:17.129Z,14.93
2023-01-01T00:08:04.176Z,17.57
2023-01-01T00:11:46.790Z,24.83
2023-01-01T00:15:29.057Z,10.13
2023-01-01T00:19:12.445Z,13.80
2023-01-01T00:22:56.979Z,13.90
2023-01-01T00:26:42.070Z,18.03
2023-01-01T00:30:26.156Z,14.60
2023-01-01T00:34:10.842Z,15.83
2023-01-01T00:37:56.097Z,14.93
2023-01-01T00:41:38.224Z,13.03
2023-01-01T00:45:22.739Z,15.37
2023-01-01T00:49:05.019Z,17.10
2023-01-01T00:52:47.162Z,16.63
2023-01-01T00:56:29.261Z,20.53
2023-01-01T01:00:30.103Z,20.17
2023-01-01T01:04:13.476Z,14.17
2023-01-01T01:07:55.681Z,21.47
2023-01-01T01:11:41.873Z,16.73
2023-01-01T01:15:26.024Z,16.42
2023-01-01T01:19:12.359Z,20.57
2023-01-01T01:22:54.330Z,16.80
2023-01-01T01:26:37.069Z,17.93
2023-01-01T01:30:19.193Z,18.20
2023-01-01T01:34:02.058Z,15.17
2023-01-01T01:37:44.099Z,18.13
2023-01-01T01:41:28.901Z,20.37
2023-01-01T01:45:12.889Z,20.57
2023-01-01T01:48:59.191Z,19.73
2023-01-01T01:52:48.410Z,25.23
2023-01-01T01:56:42.756Z,22.43
2023-01-01T02:00:24.900Z,23.40
2023-01-01T02:04:09.453Z,22.70
2023-01-01T02:07:52.829Z,15.33
2023-01-01T02:11:37.552Z,16.43
2023-01-01T02:15:20.508Z,17.47
2023-01-01T02:19:26.893Z,18.33
2023-01-01T02:23:28.900Z,23.77
2023-01-01T02:27:34.239Z,18.10
2023-01-01T02:31:24.247Z,23.97
2023-01-01T02:35:32.897Z,25.07
2023-01-01T02:39:17.084Z,24.93
2023-01-01T02:43:00.271Z,26.80
2023-01-01T02:46:42.460Z,22.63
2023-01-01T02:50:28.100Z,23.13
2023-01-01T02:54:32.599Z,18.33
2023-01-01T02:58:46.983Z,22.87
2023-01-01T03:02:55.041Z,24.50
2023-01-01T03:06:56.041Z,19.47
2023-01-01T03:10:43.963Z,23.40
2023-01-01T03:14:25.887Z,20.67
2023-01-01T03:18:33.684Z,28.63
2023-01-01T03:22:21.908Z,21.03
2023-01-01T03:26:10.129Z,17.67
2023-01-01T03:29:55.860Z,21.40
2023-01-01T03:33:47.939Z,25.65
2023-01-01T03:37:32.228Z,29.80
2023-01-01T03:41:58.814Z,17.47
2023-01-01T03:45:46.404Z,22.03
2023-01-01T03:49:30.917Z,15.83
2023-01-01T03:53:38.965Z,12.07
2023-01-01T03:57:42.393Z,7.37
2023-01-01T04:01:27.430Z,9.33
2023-01-01T04:05:11.300Z,7.53
2023-01-01T04:08:58.819Z,3.57
2023-01-01T04:12:40.809Z,3.27
2023-01-01T04:16:23.027Z,5.33
2023-01-01T04:20:06.116Z,5.40
2023-01-01T04:23:48.218Z,5.07
2023-01-01T04:27:30.284Z,3.13
2023-01-01T04:31:13.108Z,3.33
2023-01-01T04:34:55.159Z,4.00
2023-01-01T04:38:38.025Z,3.90
2023-01-01T04:42:20.304Z,5.07
2023-01-01T04:46:04.567Z,4.10
2023-01-01T04:49:46.748Z,5.03
2023-01-01T04:53:35.263Z,5.33
2023-01-01T04:57:17.496Z,3.90
2023-01-01T05:00:59.769Z,5.77
2023-01-01T05:04:42.939Z,7.60
2023-01-01T05:08:24.866Z,4.23
2023-01-01T05:12:07.331Z,5.40
2023-01-01T05:15:49.472Z,6.73
2023-01-01T05:19:31.568Z,8.93
2023-01-01T05:23:15.447Z,14.30
2023-01-01T05:26:57.791Z,14.20
2023-01-01T05:30:40.993Z,17.83
2023-01-01T05:34:22.997Z,19.10
2023-01-01T05:38:04.966Z,18.83
2023-01-01T05:41:46.942Z,28.10
2023-01-01T05:45:29.044Z,16.07
2023-01-01T05:49:12.065Z,25.97
2023-01-01T05:52:54.090Z,28.50
2023-01-01T05:56:36.766Z,26.53
2023-01-01T06:00:19.042Z,31.63
2023-01-01T06:04:01.186Z,20.07
2023-01-01T06:07:48.188Z,26.93
2023-01-01T06:11:32.058Z,17.70
2023-01-01T06:15:14.253Z,10.27
2023-01-01T06:18:59.476Z,9.47
2023-01-01T06:22:41.755Z,9.83
2023-01-01T06:26:26.022Z,15.87
2023-01-01T06:30:09.255Z,13.77
2023-01-01T06:33:51.654Z,12.67
2023-01-01T06:37:33.856Z,15.33
2023-01-01T06:41:21.373Z,10.80
2023-01-01T06:45:03.831Z,12.57
2023-01-01T06:48:47.904Z,13.03
2023-01-01T06:52:31.996Z,17.83
2023-01-01T06:56:15.057Z,19.13
2023-01-01T06:59:57.177Z,15.60
2023-01-01T07:03:40.681Z,14.70
2023-01-01T07:07:23.806Z,16.40
2023-01-01T07:11:05.800Z,13.63
2023-01-01T07:14:47.676Z,14.53
2023-01-01T07:18:29.777Z,12.90
2023-01-01T07:22:12.300Z,16.47
2023-01-01T07:25:55.999Z,16.67
2023-01-01T07:29:37.933Z,14.80
2023-01-01T07:33:22.313Z,9.30
2023-01-01T07:37:04.401Z,12.97
2023-01-01T07:40:46.410Z,16.73
2023-01-01T07:44:28.450Z,12.77
2023-01-01T07:48:15.998Z,13.50
2023-01-01T07:51:57.977Z,14.57
2023-01-01T07:55:40.165Z,18.40
2023-01-01T07:59:22.224Z,11.47
2023-01-01T08:03:04.560Z,9.33
2023-01-01T08:06:46.547Z,11.37
2023-01-01T08:10:31.465Z,17.17
2023-01-01T08:14:14.066Z,22.27
2023-01-01T08:17:59.636Z,15.23
2023-01-01T08:21:41.590Z,20.50
2023-01-01T08:25:23.732Z,23.60
2023-01-01T08:29:07.088Z,19.87
2023-01-01T08:32:49.218Z,20.40
2023-01-01T08:36:31.698Z,25.23
2023-01-01T08:40:14.404Z,21.47
2023-01-01T08:43:56.315Z,19.90
2023-01-01T08:47:38.312Z,27.10
2023-01-01T08:51:20.379Z,25.17
2023-01-01T08:55:02.438Z,29.23
2023-01-01T08:58:44.651Z,28.23
2023-01-01T09:02:26.803Z,25.30
2023-01-01T09:06:09.023Z,36.50
2023-01-01T09:09:51.126Z,29.30
2023-01-01T09:13:34.561Z,33.70
2023-01-01T09:17:16.609Z,29.97
2023-01-01T09:20:58.880Z,28.10
2023-01-01T09:24:41.122Z,25.43
2023-01-01T09:28:25.876Z,42.53
2023-01-01T09:32:08.216Z,39.10
2023-01-01T09:35:52.414Z,32.37
2023-01-01T09:39:34.582Z,44.57
2023-01-01T09:43:33.410Z,34.17
2023-01-01T09:47:28.488Z,42.10
2023-01-01T09:51:18.617Z,41.00
2023-01-01T09:55:10.071Z,40.83
2023-01-01T09:58:52.177Z,34.13
2023-01-01T10:02:59.735Z,33.00
2023-01-01T10:06:53.499Z,32.53
2023-01-01T10:10:58.188Z,46.93
2023-01-01T10:14:44.371Z,39.93
2023-01-01T10:18:33.665Z,34.05
2023-01-01T10:22:40.664Z,40.80
2023-01-01T10:30:22.648Z,33.50
2023-01-01T10:34:12.852Z,41.07
2023-01-01T10:37:54.777Z,27.40
2023-01-01T10:41:38.362Z,24.80
2023-01-01T10:45:33.131Z,23.97
2023-01-01T10:49:16.777Z,26.00
2023-01-01T10:53:01.235Z,19.33
2023-01-01T10:56:43.575Z,22.57
2023-01-01T11:00:28.644Z,18.27
2023-01-01T11:04:13.666Z,20.03
2023-01-01T11:07:55.670Z,23.73
2023-01-01T11:11:45.260Z,26.87
2023-01-01T11:15:40.481Z,25.57
2023-01-01T11:19:29.173Z,24.73
2023-01-01T11:23:36.223Z,15.80
2023-01-01T11:31:10.613Z,19.07
2023-01-01T11:35:03.554Z,22.30
2023-01-01T11:38:48.015Z,26.70
2023-01-01T11:42:35.739Z,17.67
2023-01-01T11:46:24.921Z,21.00
2023-01-01T11:50:27.096Z,24.00
2023-01-01T11:54:34.220Z,24.77
2023-01-01T11:58:40.897Z,21.63
2023-01-01T12:02:49.487Z,27.15
2023-01-01T12:06:43.653Z,34.93
2023-01-01T12:10:31.327Z,23.67
2023-01-01T12:14:19.045Z,38.83
2023-01-01T12:18:20.085Z,24.93
2023-01-01T12:22:03.117Z,28.63
2023-01-01T12:25:50.652Z,29.00
2023-01-01T12:29:38.772Z,33.30
2023-01-01T12:33:32.382Z,26.10
2023-01-01T12:37:37.354Z,23.10
2023-01-01T12:41:23.515Z,38.47
2023-01-01T12:45:23.258Z,33.08
2023-01-01T12:49:46.712Z,29.63
2023-01-01T12:53:32.378Z,32.50
2023-01-01T12:57:29.802Z,34.78
2023-01-01T13:01:18.208Z,44.93
2023-01-01T13:05:18.491Z,42.10
2023-01-01T13:09:11.089Z,31.37
2023-01-01T13:12:56.612Z,30.67
2023-01-01T13:16:42.644Z,43.67
2023-01-01T13:20:26.824Z,31.17
2023-01-01T13:24:24.419Z,28.53
2023-01-01T13:28:12.940Z,34.77
2023-01-01T13:32:04.412Z,34.37
2023-01-01T13:35:46.396Z,33.40
2023-01-01T13:40:00.386Z,37.47
2023-01-01T13:43:42.580Z,32.70
2023-01-01T13:48:04.514Z,31.73
2023-01-01T13:52:32.992Z,57.23
2023-01-01T13:56:27.392Z,30.00
2023-01-01T14:00:23.268Z,44.03
2023-01-01T14:04:20.572Z,34.15
2023-01-01T14:08:04.285Z,32.67
2023-01-01T14:11:48.468Z,37.67
2023-01-01T14:15:45.975Z,34.23
2023-01-01T14:19:28.973Z,31.17
2023-01-01T14:23:23.323Z,32.53
2023-01-01T14:27:06.400Z,36.07
2023-01-01T14:30:48.889Z,37.83
2023-01-01T14:34:33.525Z,39.23
2023-01-01T14:38:27.455Z,43.10
2023-01-01T14:42:15.504Z,29.50
2023-01-01T14:45:58.270Z,32.90
2023-01-01T14:49:40.395Z,30.27
2023-01-01T14:53:32.093Z,35.73
2023-01-01T14:57:25.916Z,30.43
2023-01-01T15:01:16.673Z,33.57
2023-01-01T15:04:59.525Z,30.20
2023-01-01T15:08:41.519Z,35.23
2023-01-01T15:12:24.715Z,30.17
2023-01-01T15:16:20.520Z,30.63
2023-01-01T15:20:19.257Z,34.70
2023-01-01T15:24:16.039Z,28.33
2023-01-01T15:27:58.823Z,25.70
2023-01-01T15:31:45.137Z,42.47
2023-01-01T15:39:14.080Z,31.95
2023-01-01T15:42:57.194Z,26.87
2023-01-01T15:46:47.510Z,13.80
2023-01-01T15:51:01.572Z,9.73
2023-01-01T15:54:46.212Z,19.67
2023-01-01T15:58:48.628Z,8.17
2023-01-01T16:02:36.519Z,10.07
2023-01-01T16:06:21.585Z,18.73
2023-01-01T16:10:04.183Z,13.77
2023-01-01T16:13:46.451Z,12.83
2023-01-01T16:17:28.396Z,16.17
2023-01-01T16:21:10.719Z,15.83
2023-01-01T16:24:52.723Z,14.13
2023-01-01T16:28:34.633Z,16.20
2023-01-01T16:32:19.940Z,18.43
2023-01-01T16:36:01.942Z,13.30
2023-01-01T16:39:44.124Z,17.53
2023-01-01T16:43:27.307Z,15.20
2023-01-01T16:47:09.968Z,16.27
2023-01-01T16:50:54.169Z,24.90
2023-01-01T16:54:36.354Z,26.57
2023-01-01T16:58:48.673Z,17.20
2023-01-01T17:02:21.019Z,16.93
2023-01-01T17:06:05.787Z,18.43
2023-01-01T17:09:47.924Z,19.57
2023-01-01T17:13:30.966Z,15.53
2023-01-01T17:17:13.371Z,16.80
2023-01-01T17:20:55.787Z,16.40
2023-01-01T17:24:37.789Z,19.10
2023-01-01T17:28:20.196Z,18.40
2023-01-01T17:32:02.295Z,15.00
2023-01-01T17:35:45.040Z,14.30
2023-01-01T17:39:27.192Z,13.73
2023-01-01T17:43:09.332Z,18.03
2023-01-01T17:46:53.751Z,16.10
2023-01-01T17:50:37.287Z,18.80
2023-01-01T17:54:19.322Z,16.43
2023-01-01T17:58:01.260Z,11.97
2023-01-01T18:01:44.221Z,13.03
2023-01-01T18:05:27.326Z,16.17
2023-01-01T18:09:12.117Z,45.53
2023-01-01T18:12:55.838Z,19.67
2023-01-01T18:16:39.524Z,16.53
2023-01-01T18:20:21.830Z,11.70
2023-01-01T18:24:07.073Z,17.07
2023-01-01T18:27:57.190Z,14.97
2023-01-01T18:31:40.155Z,13.97
2023-01-01T18:35:22.210Z,14.20
2023-01-01T18:39:16.967Z,15.17
2023-01-01T18:43:08.596Z,23.53
2023-01-01T18:47:05.421Z,17.13
2023-01-01T18:54:30.977Z,14.80
2023-01-01T18:58:24.358Z,17.97
2023-01-01T19:02:36.756Z,17.43
2023-01-01T19:06:32.120Z,14.40
2023-01-01T19:10:16.060Z,14.60
2023-01-01T19:14:08.412Z,14.40
2023-01-01T19:17:52.691Z,14.20
2023-01-01T19:21:34.778Z,11.67
2023-01-01T19:25:38.897Z,17.23
2023-01-01T19:29:23.184Z,15.60
2023-01-01T19:33:06.561Z,12.17
2023-01-01T19:36:48.817Z,16.77
2023-01-01T19:40:30.899Z,13.77
2023-01-01T19:44:12.926Z,14.13
2023-01-01T19:47:54.995Z,12.60
2023-01-01T19:51:37.135Z,13.83
2023-01-01T19:55:19.333Z,16.60
2023-01-01T19:59:01.523Z,16.60
2023-01-01T20:02:46.965Z,17.37
2023-01-01T20:06:30.574Z,16.95
2023-01-01T20:10:13.075Z,15.33
2023-01-01T20:13:55.083Z,17.73
2023-01-01T20:17:37.150Z,14.50
2023-01-01T20:21:38.734Z,20.53
2023-01-01T20:25:20.952Z,12.10
2023-01-01T20:29:21.104Z,22.93
2023-01-01T20:33:03.613Z,12.10
2023-01-01T20:37:04.685Z,16.73
2023-01-01T20:40:46.823Z,13.13
2023-01-01T20:44:29.426Z,14.87
2023-01-01T20:48:17.849Z,19.63
2023-01-01T20:52:01.680Z,18.43
2023-01-01T20:55:46.748Z,13.47
2023-01-01T20:59:35.748Z,11.27
2023-01-01T21:03:19.252Z,14.10
2023-01-01T21:07:01.299Z,14.60
2023-01-01T21:10:43.476Z,11.43
2023-01-01T21:14:25.623Z,13.43
2023-01-01T21:18:11.274Z,9.03
2023-01-01T21:21:56.066Z,12.45
2023-01-01T21:25:50.944Z,10.90
2023-01-01T21:29:33.973Z,12.80
2023-01-01T21:33:25.898Z,12.57
2023-01-01T21:37:37.309Z,11.83
2023-01-01T21:41:31.281Z,9.63
2023-01-01T21:45:31.927Z,13.67
2023-01-01T21:49:29.470Z,16.23
2023-01-01T21:53:36.175Z,9.33
2023-01-01T21:57:21.414Z,10.23
2023-01-01T22:01:27.657Z,9.20
2023-01-01T22:05:29.647Z,14.70
2023-01-01T22:09:41.927Z,9.90
2023-01-01T22:13:24.910Z,13.10
2023-01-01T22:17:33.392Z,7.83
2023-01-01T22:21:19.137Z,13.07
2023-01-01T22:25:15.358Z,9.03
2023-01-01T22:29:03.719Z,14.38
2023-01-01T22:32:56.074Z,10.97
2023-01-01T22:36:39.901Z,9.43
2023-01-01T22:40:29.539Z,8.77
2023-01-01T22:44:12.501Z,7.83
2023-01-01T22:47:55.244Z,10.53
2023-01-01T22:51:42.728Z,13.40
2023-01-01T22:55:25.324Z,13.77
2023-01-01T22:59:07.825Z,7.83
2023-01-01T23:02:49.951Z,10.17
2023-01-01T23:06:33.118Z,10.13
2023-01-01T23:10:15.545Z,10.37
2023-01-01T23:14:15.915Z,7.00
2023-01-01T23:17:57.968Z,9.77
2023-01-01T23:21:44.788Z,14.73
2023-01-01T23:25:29.098Z,7.83
2023-01-01T23:29:12.096Z,9.43
2023-01-01T23:32:54.145Z,10.43
2023-01-01T23:36:37.572Z,11.57
2023-01-01T23:40:19.701Z,8.27
2023-01-01T23:44:01.580Z,12.50
2023-01-01T23:47:43.716Z,10.50
2023-01-01T23:51:28.925Z,7.13
2023-01-01T23:55:10.908Z,9.17
2023-01-01T23:58:53.002Z,10.57
